createdAt,value
2022-09-03T00:02:39.058Z,42.62
2022-09-03T00:05:11.994Z,43.49
2022-09-03T00:08:00.287Z,42.80
2022-09-03T00:10:30.517Z,42.95
2022-09-03T00:13:00.513Z,42.73
2022-09-03T00:15:28.311Z,43.44
2022-09-03T00:18:01.708Z,42.59
2022-09-03T00:20:33.870Z,42.91
2022-09-03T00:23:02.018Z,43.92
2022-09-03T00:25:30.463Z,43.78
2022-09-03T00:27:58.228Z,43.67
2022-09-03T00:30:26.066Z,44.66
2022-09-03T00:32:56.608Z,44.60
2022-09-03T00:35:25.602Z,45.45
2022-09-03T00:37:53.353Z,44.43
2022-09-03T00:40:33.170Z,44.65
2022-09-03T00:43:09.723Z,45.19
2022-09-03T00:45:44.307Z,44.80
2022-09-03T00:48:11.815Z,44.68
2022-09-03T00:50:39.954Z,44.91
2022-09-03T00:53:07.389Z,45.04
2022-09-03T00:55:39.486Z,46.15
2022-09-03T00:58:16.167Z,46.02
2022-09-03T01:00:46.567Z,45.82
2022-09-03T01:03:16.964Z,45.67
2022-09-03T01:05:56.553Z,44.80
2022-09-03T01:08:44.716Z,44.81
2022-09-03T01:11:19.280Z,44.59
2022-09-03T01:13:55.178Z,44.33
2022-09-03T01:16:35.753Z,44.18
2022-09-03T01:19:05.773Z,43.67
2022-09-03T01:21:34.911Z,44.32
2022-09-03T01:24:02.222Z,44.30
2022-09-03T01:26:31.686Z,43.87
2022-09-03T01:28:59.444Z,44.26
2022-09-03T01:31:50.112Z,44.74
2022-09-03T01:34:20.564Z,46.06
2022-09-03T01:37:06.879Z,46.06
2022-09-03T01:39:34.514Z,45.63
2022-09-03T01:42:20.703Z,45.40
2022-09-03T01:44:53.071Z,45.18
2022-09-03T01:47:26.693Z,45.13
2022-09-03T01:49:57.938Z,45.39
2022-09-03T01:52:34.612Z,46.16
2022-09-03T01:55:13.993Z,46.85
2022-09-03T01:57:42.138Z,46.94
2022-09-03T02:00:20.654Z,46.07
2022-09-03T02:02:51.521Z,46.81
2022-09-03T02:05:19.281Z,46.45
2022-09-03T02:07:48.216Z,45.86
2022-09-03T02:10:16.749Z,46.09
2022-09-03T02:12:48.670Z,45.86
2022-09-03T02:15:17.868Z,46.87
2022-09-03T02:17:47.555Z,46.57
2022-09-03T02:20:16.744Z,46.58
2022-09-03T02:22:44.147Z,46.20
2022-09-03T02:25:11.676Z,46.79
2022-09-03T02:27:41.184Z,47.17
2022-09-03T02:30:08.936Z,46.63
2022-09-03T02:32:36.440Z,46.57
2022-09-03T02:35:04.314Z,46.47
2022-09-03T02:37:31.810Z,46.74
2022-09-03T02:39:59.423Z,46.53
2022-09-03T02:42:27.332Z,47.11
2022-09-03T02:44:56.421Z,47.55
2022-09-03T02:47:23.926Z,47.80
2022-09-03T02:49:51.356Z,46.73
2022-09-03T02:52:18.744Z,48.33
2022-09-03T02:54:46.191Z,46.98
2022-09-03T02:57:14.385Z,47.43
2022-09-03T02:59:44.266Z,46.68
2022-09-03T03:02:13.204Z,46.71
2022-09-03T03:04:40.720Z,46.70
2022-09-03T03:07:08.107Z,47.10
2022-09-03T03:09:35.950Z,48.50
2022-09-03T03:12:04.178Z,47.53
2022-09-03T03:14:31.733Z,47.98
2022-09-03T03:16:59.390Z,47.45
2022-09-03T03:19:26.841Z,47.60
2022-09-03T03:21:54.240Z,47.63
2022-09-03T03:24:21.680Z,47.45
2022-09-03T03:26:49.141Z,46.93
2022-09-03T03:29:19.911Z,46.93
2022-09-03T03:31:47.267Z,48.44
2022-09-03T03:34:15.436Z,47.97
2022-09-03T03:36:43.735Z,47.63
2022-09-03T03:39:11.371Z,46.59
2022-09-03T03:41:39.353Z,46.70
2022-09-03T03:44:07.059Z,47.47
2022-09-03T03:46:35.661Z,47.04
2022-09-03T03:49:03.208Z,47.84
2022-09-03T03:51:30.706Z,46.89
2022-09-03T03:54:01.081Z,47.60
2022-09-03T03:56:32.109Z,47.02
2022-09-03T03:58:59.587Z,46.91
2022-09-03T04:01:27.313Z,47.08
2022-09-03T04:03:55.440Z,48.12
2022-09-03T04:06:23.995Z,47.76
2022-09-03T04:08:51.634Z,47.71
2022-09-03T04:11:20.879Z,47.80
2022-09-03T04:13:48.351Z,47.16
2022-09-03T04:16:16.845Z,46.64
2022-09-03T04:18:44.690Z,46.56
2022-09-03T04:21:13.432Z,47.18
2022-09-03T04:23:42.066Z,46.98
2022-09-03T04:26:10.101Z,46.22
2022-09-03T04:28:37.822Z,46.61
2022-09-03T04:31:06.598Z,46.34
2022-09-03T04:33:35.788Z,46.91
2022-09-03T04:36:10.258Z,45.96
2022-09-03T04:38:38.627Z,46.56
2022-09-03T04:41:06.489Z,45.40
2022-09-03T04:43:34.150Z,45.07
2022-09-03T04:46:02.828Z,45.33
2022-09-03T04:48:30.654Z,44.35
2022-09-03T04:51:08.002Z,44.16
2022-09-03T04:53:38.211Z,43.64
2022-09-03T04:56:14.945Z,43.30
2022-09-03T04:58:44.329Z,43.75
2022-09-03T05:01:12.232Z,43.95
2022-09-03T05:03:39.904Z,43.49
2022-09-03T05:06:08.916Z,42.99
2022-09-03T05:08:38.921Z,42.32
2022-09-03T05:11:06.787Z,43.03
2022-09-03T05:13:34.502Z,42.88
2022-09-03T05:16:06.702Z,43.12
2022-09-03T05:18:36.059Z,43.47
2022-09-03T05:21:04.354Z,43.02
2022-09-03T05:23:36.972Z,43.76
2022-09-03T05:26:10.967Z,43.13
2022-09-03T05:28:39.258Z,43.12
2022-09-03T05:31:08.066Z,43.48
2022-09-03T05:33:36.117Z,43.23
2022-09-03T05:36:04.382Z,43.60
2022-09-03T05:38:31.883Z,42.50
2022-09-03T05:41:00.742Z,42.78
2022-09-03T05:43:28.434Z,42.57
2022-09-03T05:46:00.680Z,42.99
2022-09-03T05:48:31.687Z,42.00
2022-09-03T05:51:00.640Z,42.45
2022-09-03T05:53:28.466Z,42.25
2022-09-03T05:55:59.779Z,41.99
2022-09-03T05:58:31.048Z,41.67
2022-09-03T06:00:59.000Z,41.14
2022-09-03T06:03:26.645Z,41.41
2022-09-03T06:05:54.699Z,40.37
2022-09-03T06:08:22.197Z,40.30
2022-09-03T06:10:49.663Z,40.13
2022-09-03T06:13:17.327Z,39.31
2022-09-03T06:15:44.727Z,39.50
2022-09-03T06:18:12.248Z,39.68
2022-09-03T06:20:40.370Z,39.07
2022-09-03T06:23:07.750Z,39.72
2022-09-03T06:25:35.240Z,38.28
2022-09-03T06:28:03.127Z,38.23
2022-09-03T06:30:30.945Z,38.17
2022-09-03T06:32:59.358Z,37.54
2022-09-03T06:35:26.702Z,37.39
2022-09-03T06:37:57.023Z,37.19
2022-09-03T06:40:26.409Z,36.89
2022-09-03T06:42:59.358Z,35.82
2022-09-03T06:45:26.836Z,36.00
2022-09-03T06:47:54.233Z,36.01
2022-09-03T06:50:21.928Z,36.01
2022-09-03T06:52:55.635Z,36.00
2022-09-03T06:55:23.214Z,35.44
2022-09-03T06:57:57.164Z,35.37
2022-09-03T07:00:24.726Z,35.20
2022-09-03T07:02:59.170Z,34.67
2022-09-03T07:05:28.766Z,34.67
2022-09-03T07:07:56.417Z,34.75
2022-09-03T07:10:24.230Z,33.97
2022-09-03T07:12:51.657Z,34.25
2022-09-03T07:15:20.022Z,33.53
2022-09-03T07:17:48.200Z,32.83
2022-09-03T07:20:15.820Z,32.76
2022-09-03T07:22:43.318Z,32.21
2022-09-03T07:25:11.656Z,29.54
2022-09-03T07:27:39.129Z,28.86
2022-09-03T07:30:09.834Z,26.83
2022-09-03T07:32:41.095Z,27.08
2022-09-03T07:35:09.543Z,25.01
2022-09-03T07:37:38.623Z,24.66
2022-09-03T07:40:06.509Z,24.14
2022-09-03T07:42:36.223Z,24.93
2022-09-03T11:04:49.578Z,27.58
2022-09-03T11:07:18.111Z,26.75
2022-09-03T11:09:45.649Z,26.68
2022-09-03T11:12:22.040Z,27.59
2022-09-03T11:14:51.020Z,27.95
2022-09-03T11:17:22.667Z,26.85
2022-09-03T11:19:51.701Z,26.71
2022-09-03T11:22:20.962Z,27.09
2022-09-03T11:24:50.659Z,26.96
2022-09-03T11:27:20.884Z,27.38
2022-09-03T11:30:00.722Z,27.88
2022-09-03T11:32:35.747Z,28.93
2022-09-03T11:35:03.386Z,27.77
2022-09-03T11:37:31.397Z,28.23
2022-09-03T11:39:58.944Z,27.48
2022-09-03T11:42:26.881Z,27.00
2022-09-03T11:44:59.413Z,26.62
2022-09-03T11:47:40.458Z,26.78
2022-09-03T11:50:09.748Z,27.14
2022-09-03T11:52:40.883Z,27.12
2022-09-03T11:55:08.719Z,27.62
2022-09-03T11:57:41.676Z,27.03
2022-09-03T12:00:12.166Z,27.18
2022-09-03T12:02:46.505Z,28.79
2022-09-03T12:05:37.263Z,28.13
2022-09-03T12:08:23.555Z,27.72
2022-09-03T12:10:51.166Z,27.46
2022-09-03T12:13:18.831Z,27.06
2022-09-03T12:15:52.623Z,26.80
2022-09-03T12:18:23.998Z,26.60
2022-09-03T12:20:58.830Z,26.49
2022-09-03T12:23:27.170Z,26.82
2022-09-03T12:25:54.614Z,26.60
2022-09-03T12:28:23.689Z,26.98
2022-09-03T12:30:53.523Z,26.99
2022-09-03T12:33:21.865Z,27.65
2022-09-03T12:35:58.719Z,28.41
2022-09-03T12:38:27.584Z,26.81
2022-09-03T12:43:46.215Z,27.12
2022-09-03T12:46:17.988Z,26.81
2022-09-03T12:51:54.350Z,28.15
2022-09-03T12:54:22.451Z,28.25
2022-09-03T12:57:08.833Z,27.40
2022-09-03T12:59:38.660Z,28.43
2022-09-03T13:02:12.076Z,28.38
2022-09-03T13:04:39.567Z,28.24
2022-09-03T13:07:07.862Z,28.83
2022-09-03T13:09:36.586Z,28.38
2022-09-03T13:12:07.548Z,28.35
2022-09-03T13:14:47.430Z,29.03
2022-09-03T13:17:14.821Z,29.61
2022-09-03T13:19:45.179Z,29.47
2022-09-03T13:22:38.802Z,29.91
2022-09-03T13:25:09.421Z,28.40
2022-09-03T13:27:43.356Z,28.09
2022-09-03T13:30:13.972Z,29.11
2022-09-03T13:32:43.638Z,29.53
2022-09-03T13:35:14.855Z,29.48
2022-09-03T13:37:45.163Z,28.99
2022-09-03T13:40:16.214Z,29.40
2022-09-03T13:43:03.012Z,30.04
2022-09-03T13:45:40.239Z,29.69
2022-09-03T13:48:33.454Z,30.07
2022-09-03T13:51:10.132Z,30.12
2022-09-03T13:53:48.791Z,30.18
2022-09-03T13:56:19.052Z,30.45
2022-09-03T13:59:07.248Z,30.44
2022-09-03T14:01:47.386Z,30.43
2022-09-03T14:04:18.112Z,30.43
2022-09-03T14:06:57.921Z,30.92
2022-09-03T14:09:45.376Z,30.38
2022-09-03T14:12:19.164Z,30.54
2022-09-03T14:15:03.839Z,30.54
2022-09-03T14:17:41.053Z,30.25
2022-09-03T14:20:19.892Z,29.78
2022-09-03T14:23:02.763Z,31.34
2022-09-03T14:25:30.507Z,30.62
2022-09-03T14:28:33.993Z,31.38
2022-09-03T14:31:04.735Z,30.60
2022-09-03T14:33:59.077Z,31.30
2022-09-03T14:36:29.904Z,31.16
2022-09-03T14:39:06.632Z,31.77
2022-09-03T14:41:46.048Z,30.75
2022-09-03T14:44:23.151Z,30.85
2022-09-03T14:47:16.927Z,30.61
2022-09-03T14:49:58.184Z,30.16
2022-09-03T14:52:44.283Z,30.48
2022-09-03T14:55:24.884Z,30.80
2022-09-03T14:57:55.662Z,31.41
2022-09-03T15:00:31.715Z,31.23
2022-09-03T15:03:14.500Z,32.52
2022-09-03T15:05:46.225Z,32.55
2022-09-03T15:08:32.167Z,33.08
2022-09-03T15:11:00.891Z,32.83
2022-09-03T15:13:33.549Z,33.31
2022-09-03T15:16:01.831Z,33.02
2022-09-03T15:18:50.291Z,33.01
2022-09-03T15:21:36.627Z,33.63
2022-09-03T15:24:19.975Z,33.24
2022-09-03T15:26:51.574Z,33.62
2022-09-03T15:29:30.770Z,33.27
2022-09-03T15:32:17.467Z,33.43
2022-09-03T15:34:50.975Z,33.11
2022-09-03T15:37:28.558Z,33.53
2022-09-03T15:40:05.365Z,33.26
2022-09-03T15:42:34.442Z,33.34
2022-09-03T15:45:22.540Z,33.51
2022-09-03T15:47:54.483Z,33.75
2022-09-03T15:50:35.072Z,33.83
2022-09-03T15:53:05.442Z,33.89
2022-09-03T15:55:40.276Z,33.01
2022-09-03T15:58:10.674Z,33.70
2022-09-03T16:00:50.335Z,34.43
2022-09-03T16:03:23.949Z,33.82
2022-09-03T16:05:57.057Z,34.03
2022-09-03T16:08:42.410Z,33.92
2022-09-03T16:11:13.215Z,34.09
2022-09-03T16:14:01.673Z,34.57
2022-09-03T16:16:42.903Z,34.47
2022-09-03T16:19:23.962Z,34.81
2022-09-03T16:21:55.829Z,34.84
2022-09-03T16:24:25.291Z,34.63
2022-09-03T16:27:00.618Z,35.13
2022-09-03T16:29:28.738Z,34.53
2022-09-03T16:32:12.636Z,34.29
2022-09-03T16:34:48.952Z,34.75
2022-09-03T16:37:22.546Z,35.53
2022-09-03T16:39:55.645Z,34.54
2022-09-03T16:42:29.476Z,34.32
2022-09-03T16:45:05.723Z,34.63
2022-09-03T16:47:39.401Z,34.37
2022-09-03T16:50:27.741Z,34.50
2022-09-03T16:53:15.422Z,34.66
2022-09-03T16:55:46.027Z,35.21
2022-09-03T16:58:25.346Z,34.95
2022-09-03T17:00:52.970Z,35.11
2022-09-03T17:03:26.776Z,35.39
2022-09-03T17:05:57.507Z,35.69
2022-09-03T17:08:32.302Z,35.84
2022-09-03T17:11:38.288Z,35.77
2022-09-03T17:14:22.336Z,36.21
2022-09-03T17:16:53.473Z,35.86
2022-09-03T17:19:27.135Z,35.63
2022-09-03T17:22:03.685Z,35.76
2022-09-03T17:25:04.209Z,36.51
2022-09-03T17:27:35.511Z,37.04
2022-09-03T17:30:04.971Z,37.46
2022-09-03T17:32:39.715Z,37.66
2022-09-03T17:35:12.221Z,37.26
2022-09-03T17:37:55.289Z,37.55
2022-09-03T17:40:26.187Z,37.23
2022-09-03T17:43:02.398Z,37.23
2022-09-03T17:45:57.366Z,37.68
2022-09-03T17:48:27.681Z,37.39
2022-09-03T17:50:55.490Z,37.09
2022-09-03T17:53:27.049Z,37.99
2022-09-03T17:55:55.838Z,36.69
2022-09-03T17:58:31.593Z,37.69
2022-09-03T18:00:59.465Z,37.87
2022-09-03T18:03:47.187Z,37.13
2022-09-03T18:06:20.876Z,37.26
2022-09-03T18:08:48.385Z,37.33
2022-09-03T18:11:27.939Z,36.95
2022-09-03T18:14:01.428Z,37.23
2022-09-03T18:16:32.642Z,36.99
2022-09-03T18:19:02.909Z,37.06
2022-09-03T18:21:49.859Z,36.61
2022-09-03T18:24:50.829Z,36.92
2022-09-03T18:27:39.516Z,37.89
2022-09-03T18:30:26.738Z,37.53
2022-09-03T18:33:12.952Z,37.14
2022-09-03T18:35:59.515Z,37.45
2022-09-03T18:38:46.558Z,37.82
2022-09-03T18:41:44.916Z,38.25
2022-09-03T18:44:31.039Z,37.53
2022-09-03T18:50:32.544Z,40.68
2022-09-03T18:53:18.943Z,44.35
2022-09-03T18:56:05.091Z,45.58
2022-09-03T18:59:00.364Z,46.30
2022-09-03T19:01:56.748Z,48.56
2022-09-03T19:04:45.920Z,51.75
2022-09-03T19:07:37.842Z,54.04
2022-09-03T19:10:32.706Z,54.71
2022-09-03T19:13:27.605Z,57.36
2022-09-03T19:16:17.918Z,58.53
2022-09-03T19:19:22.445Z,57.32
2022-09-03T19:22:09.837Z,60.39
2022-09-03T19:24:56.105Z,60.66
2022-09-03T19:28:00.076Z,60.16
2022-09-03T19:30:55.787Z,59.10
2022-09-03T19:33:57.301Z,61.25
2022-09-03T19:36:49.492Z,58.49
2022-09-03T19:39:38.738Z,62.49
2022-09-03T19:42:24.936Z,65.08
2022-09-03T19:45:19.355Z,61.72
2022-09-03T19:48:24.424Z,62.23
2022-09-03T19:51:36.856Z,63.79
2022-09-03T19:54:23.626Z,66.32
2022-09-03T19:57:09.920Z,61.60
2022-09-03T19:59:57.843Z,62.25
2022-09-03T20:02:44.629Z,62.79
2022-09-03T20:05:32.750Z,64.64
2022-09-03T20:08:19.047Z,68.91
2022-09-03T20:10:49.834Z,68.95
2022-09-03T20:13:18.755Z,73.90
2022-09-03T20:15:49.663Z,73.71
2022-09-03T20:18:37.428Z,77.14
2022-09-03T20:21:04.953Z,82.76
2022-09-03T20:23:40.096Z,81.30
2022-09-03T20:26:26.084Z,88.76
2022-09-03T20:29:08.822Z,85.59
2022-09-03T20:31:40.036Z,92.07
2022-09-03T20:34:17.045Z,85.22
2022-09-03T20:37:04.431Z,89.07
2022-09-03T20:39:38.764Z,88.25
2022-09-03T20:42:06.301Z,94.67
2022-09-03T20:44:52.327Z,98.95
2022-09-03T20:47:22.866Z,100.00
2022-09-03T20:49:54.050Z,98.67
2022-09-03T20:52:23.404Z,100.00
2022-09-03T20:54:59.257Z,100.00
2022-09-03T20:57:45.521Z,100.00
2022-09-03T21:00:16.601Z,100.00
2022-09-03T21:03:03.817Z,100.00
2022-09-03T21:05:51.715Z,100.00
2022-09-03T21:08:26.028Z,100.00
2022-09-03T21:10:58.286Z,100.00
2022-09-03T21:13:44.482Z,100.00
2022-09-03T21:16:12.260Z,100.00
2022-09-03T21:18:52.080Z,100.00
2022-09-03T21:21:23.217Z,100.00
2022-09-03T21:24:01.876Z,100.00
2022-09-03T21:26:30.165Z,100.00
2022-09-03T21:29:00.558Z,100.00
2022-09-03T21:31:35.165Z,100.00
2022-09-03T21:34:08.644Z,100.00
2022-09-03T21:36:37.752Z,100.00
2022-09-03T21:39:23.998Z,100.00
2022-09-03T21:42:02.937Z,100.00
2022-09-03T21:44:39.636Z,100.00
2022-09-03T21:47:11.025Z,100.00
2022-09-03T21:49:40.645Z,100.00
2022-09-03T21:52:10.016Z,100.00
2022-09-03T21:54:37.431Z,100.00
2022-09-03T21:57:23.597Z,100.00
2022-09-03T22:00:10.036Z,100.00
2022-09-03T22:02:43.537Z,100.00
2022-09-03T22:05:11.367Z,100.00
2022-09-03T22:07:42.638Z,100.00
2022-09-03T22:10:16.669Z,100.00
2022-09-03T22:12:55.296Z,100.00
2022-09-03T22:15:23.915Z,100.00
2022-09-03T22:17:56.045Z,100.00
2022-09-03T22:20:24.238Z,100.00
2022-09-03T22:22:57.744Z,100.00
2022-09-03T22:25:33.001Z,100.00
2022-09-03T22:28:03.286Z,100.00
2022-09-03T22:30:34.863Z,100.00
2022-09-03T22:33:07.465Z,100.00
2022-09-03T22:35:35.006Z,100.00
2022-09-03T22:38:14.575Z,100.00
2022-09-03T22:40:45.797Z,100.00
2022-09-03T22:43:21.780Z,100.00
2022-09-03T22:45:56.592Z,100.00
2022-09-03T22:48:42.836Z,100.00
2022-09-03T22:51:10.323Z,100.00
2022-09-03T22:53:45.059Z,100.00
2022-09-03T22:56:13.732Z,100.00
2022-09-03T22:58:49.922Z,100.00
2022-09-03T23:01:18.268Z,100.00
2022-09-03T23:03:48.723Z,100.00
2022-09-03T23:06:22.710Z,100.00
2022-09-03T23:09:09.583Z,100.00
2022-09-03T23:11:39.693Z,100.00
2022-09-03T23:14:09.871Z,100.00
2022-09-03T23:16:47.260Z,100.00
2022-09-03T23:21:49.766Z,100.00
2022-09-03T23:24:19.185Z,100.00
2022-09-03T23:26:49.576Z,100.00
2022-09-03T23:29:36.854Z,100.00
2022-09-03T23:32:05.504Z,100.00
2022-09-03T23:34:33.658Z,100.00
2022-09-03T23:37:33.076Z,100.00
2022-09-03T23:40:22.336Z,100.00
2022-09-03T23:43:08.775Z,100.00
2022-09-03T23:45:36.333Z,100.00
2022-09-03T23:48:13.048Z,100.00
2022-09-03T23:50:46.355Z,100.00
2022-09-03T23:53:18.205Z,100.00
2022-09-03T23:56:05.283Z,100.00
2022-09-03T23:58:53.953Z,100.00
